Time;durP1;ratioP1;P1;durP2;ratioP2;P2;SDS_P1;SDS_P2;PMS_P1;PMS_P2;Temp;Humidity;BMP_temperature;BMP_pressure;BME280_temperature;BME280_humidity;BME280_pressure;Samples;Min_cycle;Max_cycle;Signal;HPM_P1;HPM_P2
2023/03/01 00:09:46;;;;;;;2.63;1.70;;;;;;;17.45;41.71;102884.91;20555327;28;20051;-85
2023/03/01 00:19:47;;;;;;;2.25;1.65;;;;;;;17.44;41.58;102876.00;20571348;28;20058;-86
2023/03/01 00:29:49;;;;;;;2.33;1.52;;;;;;;17.44;41.64;102881.38;20556369;28;20054;-85
2023/03/01 00:39:50;;;;;;;1.98;1.65;;;;;;;17.43;41.77;102865.28;20569532;28;20105;-85
2023/03/01 00:49:52;;;;;;;1.95;1.50;;;;;;;17.43;41.64;102863.47;20562213;28;20422;-85
2023/03/01 00:59:53;;;;;;;1.48;1.20;;;;;;;17.41;41.55;102860.00;20550956;28;20105;-85
2023/03/01 01:09:55;;;;;;;1.85;1.48;;;;;;;17.41;41.50;102860.00;20550960;28;20062;-85
2023/03/01 01:19:57;;;;;;;1.73;1.35;;;;;;;17.40;41.56;102856.44;20577818;28;20053;-85
2023/03/01 01:29:58;;;;;;;1.60;1.40;;;;;;;17.40;41.47;102848.34;20594765;28;20062;-85
2023/03/01 01:40:00;;;;;;;1.52;1.40;;;;;;;17.39;41.36;102835.00;20579470;28;20047;-85
2023/03/01 01:50:02;;;;;;;1.77;1.42;;;;;;;17.38;41.31;102820.66;20586125;28;20105;-86
2023/03/01 02:00:07;;;;;;;1.40;1.20;;;;;;;17.38;41.37;102819.78;20577177;28;20507;-86
2023/03/01 02:10:13;;;;;;;1.42;1.33;;;;;;;17.18;41.48;102773.31;20577161;28;20070;-85
2023/03/01 02:20:24;;;;;;;1.10;1.00;;;;;;;17.36;41.67;102787.56;20592286;28;20067;-85
2023/03/01 02:30:27;;;;;;;1.65;1.55;;;;;;;16.95;41.38;102716.25;20579221;28;20515;-85
2023/03/01 02:40:30;;;;;;;1.42;1.30;;;;;;;17.36;41.35;102775.94;20578667;28;20510;-85
2023/03/01 02:51:04;;;;;;;1.52;1.42;;;;;;;17.35;41.30;102763.44;20571306;28;20097;-85
2023/03/01 03:01:06;;;;;;;1.65;1.40;;;;;;;17.34;40.95;102776.00;20559496;28;20503;-86
2023/03/01 03:11:11;;;;;;;2.17;1.55;;;;;;;17.35;40.94;102766.13;20575440;28;20389;-85
2023/03/01 03:21:13;;;;;;;1.38;1.27;;;;;;;17.33;40.75;102759.97;20559574;28;20730;-85
2023/03/01 03:31:15;;;;;;;1.30;1.20;;;;;;;17.17;40.77;102731.19;20552242;28;20057;-85
2023/03/01 03:41:17;;;;;;;1.60;1.45;;;;;;;17.31;40.72;102757.34;20551788;28;20463;-85
2023/03/01 03:51:18;;;;;;;1.80;1.38;;;;;;;17.05;40.63;102711.25;20554120;28;20050;-85
2023/03/01 04:01:20;;;;;;;2.25;1.38;;;;;;;17.29;40.71;102753.88;20553416;28;20081;-84
2023/03/01 04:11:27;;;;;;;1.73;1.60;;;;;;;17.22;40.55;102747.94;20525157;28;20470;-85
2023/03/01 04:21:29;;;;;;;3.35;1.40;;;;;;;17.28;40.47;102770.97;20537637;28;20058;-85
2023/03/01 04:31:30;;;;;;;2.30;1.33;;;;;;;17.29;40.47;102747.63;20551777;28;20047;-85
2023/03/01 04:41:32;;;;;;;1.77;1.33;;;;;;;17.28;40.33;102738.66;20533803;28;20579;-85
2023/03/01 04:51:33;;;;;;;2.17;1.73;;;;;;;17.28;40.13;102718.97;20515411;28;20059;-85
2023/03/01 05:01:35;;;;;;;1.98;1.77;;;;;;;17.23;40.17;102708.47;20549197;28;20074;-85
2023/03/01 05:11:37;;;;;;;2.17;1.70;;;;;;;16.95;40.06;102654.38;20545311;28;20059;-85
2023/03/01 05:32:02;;;;;;;1.50;1.40;;;;;;;17.25;41.38;102667.06;20536249;28;20138;-85
2023/03/01 05:42:04;;;;;;;3.47;1.80;;;;;;;17.27;42.24;102668.78;20531500;28;20710;-85
2023/03/01 05:52:05;;;;;;;4.20;2.40;;;;;;;17.20;43.44;102650.28;20540865;28;20047;-85
2023/03/01 06:02:07;;;;;;;2.60;2.00;;;;;;;17.28;43.53;102654.38;20535588;28;20053;-83
2023/03/01 06:12:08;;;;;;;2.85;2.10;;;;;;;17.27;43.63;102669.63;20579941;28;20047;-82
2023/03/01 06:22:10;;;;;;;3.40;2.13;;;;;;;17.27;43.61;102677.72;20562210;28;20403;-82
2023/03/01 06:32:11;;;;;;;2.33;1.90;;;;;;;17.10;43.62;102659.84;20565235;28;20089;-82
2023/03/01 06:42:14;;;;;;;3.67;2.45;;;;;;;17.27;43.44;102693.00;20585755;28;20047;-83
2023/03/01 06:52:15;;;;;;;2.65;2.28;;;;;;;17.25;43.38;102699.34;20577949;28;20134;-84
2023/03/01 07:02:17;;;;;;;2.53;2.10;;;;;;;17.27;43.48;102706.47;20476695;28;20151;-83
2023/03/01 07:12:18;;;;;;;1.70;1.58;;;;;;;17.28;43.22;102713.59;20510923;28;20444;-82
2023/03/01 07:22:20;;;;;;;2.00;1.80;;;;;;;17.29;42.88;102701.88;20654856;28;20086;-83
2023/03/01 07:32:21;;;;;;;2.00;1.52;;;;;;;17.31;42.86;102706.19;20640906;28;20046;-82
2023/03/01 07:42:23;;;;;;;3.30;2.10;;;;;;;17.33;42.59;102709.66;20567255;28;20042;-82
2023/03/01 07:52:25;;;;;;;3.03;2.00;;;;;;;17.08;42.50;102659.94;20556370;28;20054;-82
2023/03/01 08:02:26;;;;;;;3.05;2.33;;;;;;;17.44;42.53;102705.47;20557688;28;20130;-82
2023/03/01 08:12:28;;;;;;;4.75;3.25;;;;;;;17.38;42.27;102693.25;20556307;28;20050;-82
2023/03/01 08:22:29;;;;;;;3.92;3.15;;;;;;;17.51;42.52;102699.66;20569868;28;20058;-82
2023/03/01 08:32:36;;;;;;;3.92;3.20;;;;;;;17.54;42.52;102690.53;20555211;28;20055;-82
2023/03/01 08:42:37;;;;;;;4.03;3.63;;;;;;;17.53;42.30;102681.56;20561095;28;20047;-82
2023/03/01 08:52:39;;;;;;;4.65;3.65;;;;;;;17.54;42.32;102677.94;20568443;28;20047;-82
2023/03/01 09:02:40;;;;;;;4.30;3.63;;;;;;;17.54;42.36;102687.84;20553816;28;20050;-82
2023/03/01 09:12:42;;;;;;;3.90;3.47;;;;;;;17.17;42.41;102614.63;20567032;28;20054;-82
2023/03/01 09:22:43;;;;;;;4.35;3.53;;;;;;;17.16;42.54;102615.56;20552431;28;20062;-83
2023/03/01 09:32:45;;;;;;;4.50;3.50;;;;;;;17.38;42.64;102650.19;20562158;28;20692;-82
2023/03/01 09:42:54;;;;;;;3.40;3.05;;;;;;;17.49;42.59;102658.47;20568427;28;20058;-82
2023/03/01 09:53:02;;;;;;;3.78;2.75;;;;;;;17.40;42.47;102651.81;20567546;28;20047;-83
2023/03/01 10:03:26;;;;;;;3.03;2.53;;;;;;;17.15;42.56;102612.00;20564743;28;20050;-82
2023/03/01 10:13:42;;;;;;;3.10;2.78;;;;;;;17.44;42.21;102657.88;20549170;28;20058;-83
2023/03/01 10:23:43;;;;;;;2.58;1.77;;;;;;;17.48;42.90;102648.66;20534640;28;20046;-85
2023/03/01 10:33:47;;;;;;;2.13;1.30;;;;;;;17.50;43.13;102627.91;20517102;28;20063;-86
2023/03/01 10:43:57;;;;;;;1.52;1.20;;;;;;;17.72;43.04;102637.41;20534302;28;20114;-90
2023/03/01 10:53:59;;;;;;;1.50;1.30;;;;;;;17.79;42.98;102646.84;20538128;28;20057;-89
2023/03/01 11:04:06;;;;;;;1.42;1.10;;;;;;;17.83;42.75;102634.03;20525059;28;20626;-88
2023/03/01 11:14:21;;;;;;;1.25;1.10;;;;;;;17.51;42.86;102569.53;20542517;28;20046;-90
2023/03/01 11:24:55;;;;;;;1.35;0.88;;;;;;;17.71;42.63;102597.97;20564734;28;20042;-88
2023/03/01 11:35:15;;;;;;;1.45;1.15;;;;;;;17.90;42.62;102618.38;20545852;28;20050;-88
2023/03/01 11:45:17;;;;;;;1.52;1.10;;;;;;;17.75;42.46;102601.31;20535700;28;20074;-87
2023/03/01 11:55:21;;;;;;;1.08;0.98;;;;;;;17.92;42.23;102611.94;20533228;28;20063;-88
2023/03/01 12:05:48;;;;;;;1.50;0.93;;;;;;;17.93;42.12;102600.19;20534463;28;20055;-86
2023/03/01 12:15:59;;;;;;;1.45;1.25;;;;;;;17.93;42.19;102592.13;20533000;28;20046;-88
2023/03/01 12:26:53;;;;;;;1.70;1.00;;;;;;;17.94;41.95;102577.69;20543253;28;20051;-84
2023/03/01 12:37:29;;;;;;;1.25;1.13;;;;;;;17.96;42.13;102558.72;20506513;28;20133;-87
2023/03/01 12:47:52;;;;;;;0.77;0.70;;;;;;;17.96;42.33;102547.94;20519976;28;20503;-87
2023/03/01 12:58:29;;;;;;;1.00;0.90;;;;;;;17.74;42.09;102492.72;20521596;28;20047;-88
2023/03/01 13:09:18;;;;;;;2.30;0.93;;;;;;;17.96;42.32;102515.59;20500232;28;20050;-88
2023/03/01 13:19:21;;;;;;;1.35;1.00;;;;;;;17.95;42.20;102505.78;20514628;28;20143;-91
2023/03/01 13:29:27;;;;;;;1.58;0.90;;;;;;;17.89;42.24;102490.00;20522752;28;20059;-88
2023/03/01 13:39:39;;;;;;;1.45;1.00;;;;;;;17.97;42.18;102495.78;20542344;28;20055;-91
2023/03/01 13:49:52;;;;;;;1.50;1.00;;;;;;;17.96;42.33;102467.09;20525942;28;20047;-89
2023/03/01 13:59:53;;;;;;;1.52;1.25;;;;;;;17.96;42.22;102451.81;20559191;28;20057;-89
2023/03/01 14:10:00;;;;;;;0.80;0.80;;;;;;;17.25;42.31;102327.03;20545117;28;20639;-87
2023/03/01 14:20:11;;;;;;;1.13;0.98;;;;;;;17.61;42.49;102386.69;20531153;28;20129;-87
2023/03/01 14:30:20;;;;;;;1.45;1.00;;;;;;;18.01;42.53;102427.28;20551953;28;20507;-87
2023/03/01 14:40:29;;;;;;;1.02;0.90;;;;;;;17.95;42.39;102411.47;20570723;28;20059;-88
2023/03/01 14:50:33;;;;;;;1.70;1.10;;;;;;;17.87;42.29;102381.47;20546806;28;20054;-88
2023/03/01 15:00:34;;;;;;;1.40;1.10;;;;;;;18.01;42.28;102384.16;20553166;28;20114;-88
2023/03/01 15:10:36;;;;;;;1.42;0.93;;;;;;;17.93;42.24;102371.16;20534616;28;20153;-87
2023/03/01 15:20:38;;;;;;;1.77;0.80;;;;;;;18.04;42.34;102362.38;20549281;28;20778;-87
2023/03/01 15:30:40;;;;;;;1.38;1.15;;;;;;;18.05;42.23;102361.41;20527133;28;20074;-87
2023/03/01 15:40:49;;;;;;;1.20;1.10;;;;;;;17.77;42.29;102313.84;20522116;28;20117;-89
2023/03/01 15:50:55;;;;;;;1.10;1.00;;;;;;;18.05;42.33;102353.34;20528145;28;20051;-88
2023/03/01 16:00:56;;;;;;;0.98;0.80;;;;;;;18.04;42.29;102332.75;20520185;28;20436;-86
2023/03/01 16:11:04;;;;;;;0.90;0.90;;;;;;;18.03;42.43;102340.94;20529190;28;20071;-85
2023/03/01 16:21:06;;;;;;;4.40;2.33;;;;;;;17.92;42.41;102320.94;20531704;28;20078;-90
2023/03/01 16:31:07;;;;;;;7.40;3.10;;;;;;;18.03;42.78;102333.72;20523200;28;20059;-89
2023/03/01 16:41:12;;;;;;;9.98;3.90;;;;;;;17.95;43.00;102309.97;20520255;28;20805;-87
2023/03/01 16:51:14;;;;;;;12.17;4.47;;;;;;;17.90;43.00;102289.66;20538159;28;20131;-91
2023/03/01 17:01:18;;;;;;;9.90;5.15;;;;;;;18.03;43.12;102317.53;20542511;28;20114;-90
2023/03/01 17:11:20;;;;;;;10.57;4.60;;;;;;;18.03;43.24;102333.72;20532526;28;20113;-90
2023/03/01 17:21:22;;;;;;;8.48;4.70;;;;;;;18.04;43.34;102330.06;20530079;28;20051;-87
2023/03/01 17:31:23;;;;;;;14.23;6.45;;;;;;;17.77;43.81;102306.66;20547690;28;21582;-87
2023/03/01 17:41:25;;;;;;;14.57;6.07;;;;;;;17.77;43.38;102328.19;20555573;28;20130;-87
2023/03/01 17:51:27;;;;;;;10.52;5.35;;;;;;;17.81;43.35;102356.66;20597231;28;20055;-86
2023/03/01 18:01:28;;;;;;;10.93;5.72;;;;;;;17.74;43.30;102371.50;20569286;28;20388;-87
2023/03/01 18:11:32;;;;;;;9.63;4.82;;;;;;;17.70;43.23;102369.97;20550593;28;20121;-86
2023/03/01 18:21:34;;;;;;;10.77;5.50;;;;;;;17.66;43.34;102380.06;20548687;28;20081;-87
2023/03/01 18:31:36;;;;;;;8.52;4.95;;;;;;;17.63;42.93;102391.03;20546901;28;20058;-85
2023/03/01 18:41:37;;;;;;;8.20;4.72;;;;;;;17.59;43.25;102392.19;20559238;28;20046;-86
2023/03/01 18:51:40;;;;;;;7.45;4.53;;;;;;;17.57;43.25;102383.34;20571380;28;20133;-86
2023/03/01 19:01:42;;;;;;;6.65;4.53;;;;;;;17.56;43.25;102384.31;20642650;28;20046;-87
2023/03/01 19:11:43;;;;;;;6.57;4.15;;;;;;;17.54;43.18;102389.78;20656546;28;20050;-86
2023/03/01 19:21:45;;;;;;;6.72;4.47;;;;;;;17.52;43.13;102372.88;20600355;28;20047;-87
2023/03/01 19:32:03;;;;;;;6.70;3.45;;;;;;;17.51;43.04;102376.53;20561542;28;20057;-86
2023/03/01 19:42:05;;;;;;;5.32;3.78;;;;;;;17.18;43.08;102331.94;20574039;28;20054;-86
2023/03/01 19:52:09;;;;;;;4.82;3.45;;;;;;;17.49;43.17;102378.44;20559431;28;20057;-87
2023/03/01 20:02:11;;;;;;;6.32;3.38;;;;;;;17.47;42.96;102383.06;20558017;28;20061;-87
2023/03/01 20:12:12;;;;;;;5.25;3.30;;;;;;;17.29;43.48;102370.78;20557288;28;20051;-86
2023/03/01 20:22:14;;;;;;;4.80;2.92;;;;;;;17.27;43.04;102372.72;20578806;28;20380;-87
2023/03/01 20:32:15;;;;;;;3.88;2.88;;;;;;;17.19;43.14;102382.09;20556170;28;20047;-86
2023/03/01 20:42:17;;;;;;;4.57;3.58;;;;;;;17.45;43.14;102428.06;20555412;28;20503;-86
2023/03/01 20:52:20;;;;;;;4.45;3.13;;;;;;;17.21;43.35;102388.25;20554819;28;20058;-86
2023/03/01 21:02:21;;;;;;;4.93;3.67;;;;;;;17.08;43.31;102363.97;20568348;28;20055;-87
2023/03/01 21:12:23;;;;;;;4.03;2.97;;;;;;;17.43;43.57;102421.03;20553659;28;20070;-86
2023/03/01 21:22:24;;;;;;;4.10;3.55;;;;;;;17.32;43.67;102394.81;20557853;28;20051;-86
2023/03/01 21:32:26;;;;;;;5.07;4.38;;;;;;;17.41;43.65;102399.63;20560994;28;20101;-86
2023/03/01 21:42:30;;;;;;;5.00;4.05;;;;;;;17.39;43.69;102399.69;20583314;28;20054;-86
2023/03/01 21:52:33;;;;;;;5.77;4.40;;;;;;;17.32;43.78;102405.59;20566107;28;20082;-86
2023/03/01 22:02:34;;;;;;;4.70;3.70;;;;;;;17.42;43.93;102414.81;20567241;28;20058;-86
2023/03/01 22:12:36;;;;;;;3.90;3.50;;;;;;;17.40;43.96;102405.97;20566375;28;20491;-86
2023/03/01 22:22:38;;;;;;;3.95;3.30;;;;;;;17.19;44.15;102357.88;20573543;28;20062;-86
2023/03/01 22:32:39;;;;;;;4.10;3.70;;;;;;;17.40;44.08;102392.50;20580173;28;20058;-84
2023/03/01 22:42:41;;;;;;;4.18;3.75;;;;;;;17.40;44.18;102392.50;20578565;28;20061;-87
2023/03/01 22:52:42;;;;;;;4.50;3.70;;;;;;;17.40;44.18;102400.56;20563864;28;20047;-86
2023/03/01 23:02:47;;;;;;;4.83;3.60;;;;;;;17.41;44.16;102402.31;20563878;28;20503;-87
2023/03/01 23:12:49;;;;;;;3.88;3.47;;;;;;;17.29;44.10;102384.25;20568511;28;20097;-87
2023/03/01 23:22:50;;;;;;;2.80;2.33;;;;;;;17.16;44.30;102371.53;20563242;28;20087;-86
2023/03/01 23:32:52;;;;;;;3.47;3.03;;;;;;;17.39;44.18;102415.00;20561669;28;20055;-86
2023/03/01 23:42:53;;;;;;;3.22;2.65;;;;;;;17.37;44.36;102403.47;20557384;28;20129;-87
2023/03/01 23:52:55;;;;;;;2.72;2.40;;;;;;;17.06;44.35;102348.84;20559298;28;20054;-86
